sensor_id;sensor_type;location;lat;lon;timestamp;pressure;altitude;pressure_sealevel;temperature
10598;BMP180;5346;48.766;8.674;2023-03-23T00:01:27;93544.00;;;10.80
10598;BMP180;5346;48.766;8.674;2023-03-23T00:04:03;93537.00;;;10.70
10598;BMP180;5346;48.766;8.674;2023-03-23T00:06:32;93530.00;;;10.80
10598;BMP180;5346;48.766;8.674;2023-03-23T00:09:09;93530.00;;;10.80
10598;BMP180;5346;48.766;8.674;2023-03-23T00:11:37;93529.00;;;10.70
10598;BMP180;5346;48.766;8.674;2023-03-23T00:14:12;93525.00;;;10.90
10598;BMP180;5346;48.766;8.674;2023-03-23T00:17:03;93534.00;;;10.90
10598;BMP180;5346;48.766;8.674;2023-03-23T00:19:38;93527.00;;;11.00
10598;BMP180;5346;48.766;8.674;2023-03-23T00:22:19;93532.00;;;10.90
10598;BMP180;5346;48.766;8.674;2023-03-23T00:24:55;93526.00;;;11.00
10598;BMP180;5346;48.766;8.674;2023-03-23T00:27:23;93525.00;;;10.90
10598;BMP180;5346;48.766;8.674;2023-03-23T00:29:58;93522.00;;;10.90
10598;BMP180;5346;48.766;8.674;2023-03-23T00:32:26;93515.00;;;10.90
10598;BMP180;5346;48.766;8.674;2023-03-23T00:35:00;93504.00;;;10.90
10598;BMP180;5346;48.766;8.674;2023-03-23T00:37:29;93505.00;;;10.70
10598;BMP180;5346;48.766;8.674;2023-03-23T00:40:04;93499.00;;;10.70
10598;BMP180;5346;48.766;8.674;2023-03-23T00:42:43;93512.00;;;10.90
10598;BMP180;5346;48.766;8.674;2023-03-23T00:45:17;93499.00;;;10.80
10598;BMP180;5346;48.766;8.674;2023-03-23T00:47:45;93500.00;;;10.70
10598;BMP180;5346;48.766;8.674;2023-03-23T00:50:20;93497.00;;;10.70
10598;BMP180;5346;48.766;8.674;2023-03-23T00:53:05;93497.00;;;10.70
10598;BMP180;5346;48.766;8.674;2023-03-23T00:55:35;93496.00;;;10.60
10598;BMP180;5346;48.766;8.674;2023-03-23T00:58:10;93496.00;;;10.50
10598;BMP180;5346;48.766;8.674;2023-03-23T01:00:39;93491.00;;;10.60
10598;BMP180;5346;48.766;8.674;2023-03-23T01:03:13;93505.00;;;10.60
10598;BMP180;5346;48.766;8.674;2023-03-23T01:05:47;93506.00;;;10.50
10598;BMP180;5346;48.766;8.674;2023-03-23T01:08:22;93503.00;;;10.50
10598;BMP180;5346;48.766;8.674;2023-03-23T01:10:51;93503.00;;;10.60
10598;BMP180;5346;48.766;8.674;2023-03-23T01:13:24;93505.00;;;10.70
10598;BMP180;5346;48.766;8.674;2023-03-23T01:15:58;93485.00;;;10.80
10598;BMP180;5346;48.766;8.674;2023-03-23T01:18:42;93487.00;;;10.80
10598;BMP180;5346;48.766;8.674;2023-03-23T01:21:14;93489.00;;;10.60
10598;BMP180;5346;48.766;8.674;2023-03-23T01:23:49;93483.00;;;10.60
10598;BMP180;5346;48.766;8.674;2023-03-23T01:26:26;93482.00;;;10.20
10598;BMP180;5346;48.766;8.674;2023-03-23T01:28:54;93467.00;;;10.10
10598;BMP180;5346;48.766;8.674;2023-03-23T01:31:28;93471.00;;;9.90
10598;BMP180;5346;48.766;8.674;2023-03-23T01:33:56;93464.00;;;9.80
10598;BMP180;5346;48.766;8.674;2023-03-23T01:36:30;93465.00;;;9.70
10598;BMP180;5346;48.766;8.674;2023-03-23T01:39:05;93465.00;;;9.70
10598;BMP180;5346;48.766;8.674;2023-03-23T01:41:41;93453.00;;;9.70
10598;BMP180;5346;48.766;8.674;2023-03-23T01:47:05;93448.00;;;9.50
10598;BMP180;5346;48.766;8.674;2023-03-23T01:49:38;93445.00;;;9.30
10598;BMP180;5346;48.766;8.674;2023-03-23T01:52:20;93453.00;;;9.30
10598;BMP180;5346;48.766;8.674;2023-03-23T01:54:49;93452.00;;;9.40
10598;BMP180;5346;48.766;8.674;2023-03-23T01:57:27;93447.00;;;9.30
10598;BMP180;5346;48.766;8.674;2023-03-23T02:00:06;93451.00;;;9.40
10598;BMP180;5346;48.766;8.674;2023-03-23T02:02:48;93447.00;;;9.30
10598;BMP180;5346;48.766;8.674;2023-03-23T02:05:53;93453.00;;;9.20
10598;BMP180;5346;48.766;8.674;2023-03-23T02:08:28;93445.00;;;9.20
10598;BMP180;5346;48.766;8.674;2023-03-23T02:11:16;93446.00;;;9.20
10598;BMP180;5346;48.766;8.674;2023-03-23T02:13:49;93446.00;;;9.00
10598;BMP180;5346;48.766;8.674;2023-03-23T02:28:05;93415.00;;;9.00
10598;BMP180;5346;48.766;8.674;2023-03-23T02:31:04;93416.00;;;8.80
10598;BMP180;5346;48.766;8.674;2023-03-23T02:34:00;93411.00;;;9.10
10598;BMP180;5346;48.766;8.674;2023-03-23T02:36:45;93392.00;;;9.10
10598;BMP180;5346;48.766;8.674;2023-03-23T02:39:23;93390.00;;;9.20
10598;BMP180;5346;48.766;8.674;2023-03-23T02:42:02;93392.00;;;9.10
10598;BMP180;5346;48.766;8.674;2023-03-23T02:44:43;93384.00;;;9.10
10598;BMP180;5346;48.766;8.674;2023-03-23T02:47:19;93383.00;;;9.10
10598;BMP180;5346;48.766;8.674;2023-03-23T02:49:57;93387.00;;;9.10
10598;BMP180;5346;48.766;8.674;2023-03-23T02:52:29;93398.00;;;9.00
10598;BMP180;5346;48.766;8.674;2023-03-23T02:55:05;93390.00;;;9.00
10598;BMP180;5346;48.766;8.674;2023-03-23T02:57:36;93393.00;;;9.00
10598;BMP180;5346;48.766;8.674;2023-03-23T03:00:14;93384.00;;;9.00
10598;BMP180;5346;48.766;8.674;2023-03-23T03:02:53;93384.00;;;8.90
10598;BMP180;5346;48.766;8.674;2023-03-23T03:06:04;93376.00;;;9.10
10598;BMP180;5346;48.766;8.674;2023-03-23T03:08:54;93369.00;;;9.10
10598;BMP180;5346;48.766;8.674;2023-03-23T03:11:28;93377.00;;;9.00
10598;BMP180;5346;48.766;8.674;2023-03-23T03:14:18;93371.00;;;9.20
10598;BMP180;5346;48.766;8.674;2023-03-23T03:19:46;93375.00;;;9.30
10598;BMP180;5346;48.766;8.674;2023-03-23T03:22:16;93374.00;;;9.30
10598;BMP180;5346;48.766;8.674;2023-03-23T03:24:51;93370.00;;;9.40
10598;BMP180;5346;48.766;8.674;2023-03-23T03:27:45;93373.00;;;9.30
10598;BMP180;5346;48.766;8.674;2023-03-23T03:30:20;93371.00;;;9.30
10598;BMP180;5346;48.766;8.674;2023-03-23T03:33:03;93371.00;;;9.40
10598;BMP180;5346;48.766;8.674;2023-03-23T03:35:34;93362.00;;;9.30
10598;BMP180;5346;48.766;8.674;2023-03-23T03:38:11;93363.00;;;9.30
10598;BMP180;5346;48.766;8.674;2023-03-23T03:40:39;93361.00;;;9.30
10598;BMP180;5346;48.766;8.674;2023-03-23T03:43:13;93364.00;;;9.40
10598;BMP180;5346;48.766;8.674;2023-03-23T03:45:41;93360.00;;;9.40
10598;BMP180;5346;48.766;8.674;2023-03-23T03:48:16;93351.00;;;9.30
10598;BMP180;5346;48.766;8.674;2023-03-23T03:50:44;93351.00;;;9.30
10598;BMP180;5346;48.766;8.674;2023-03-23T03:53:20;93370.00;;;9.30
10598;BMP180;5346;48.766;8.674;2023-03-23T03:55:57;93368.00;;;9.50
10598;BMP180;5346;48.766;8.674;2023-03-23T03:58:33;93368.00;;;9.30
10598;BMP180;5346;48.766;8.674;2023-03-23T04:01:04;93379.00;;;9.30
10598;BMP180;5346;48.766;8.674;2023-03-23T04:03:39;93372.00;;;9.40
10598;BMP180;5346;48.766;8.674;2023-03-23T04:06:06;93377.00;;;9.50
10598;BMP180;5346;48.766;8.674;2023-03-23T04:08:42;93368.00;;;10.30
10598;BMP180;5346;48.766;8.674;2023-03-23T04:11:11;93365.00;;;10.70
10598;BMP180;5346;48.766;8.674;2023-03-23T04:13:59;93370.00;;;11.20
10598;BMP180;5346;48.766;8.674;2023-03-23T04:16:42;93358.00;;;11.40
10598;BMP180;5346;48.766;8.674;2023-03-23T04:19:20;93347.00;;;11.90
10598;BMP180;5346;48.766;8.674;2023-03-23T04:21:49;93337.00;;;12.00
10598;BMP180;5346;48.766;8.674;2023-03-23T04:24:24;93346.00;;;12.00
10598;BMP180;5346;48.766;8.674;2023-03-23T04:27:19;93350.00;;;12.20
10598;BMP180;5346;48.766;8.674;2023-03-23T04:29:52;93340.00;;;12.30
10598;BMP180;5346;48.766;8.674;2023-03-23T04:32:28;93350.00;;;12.30
10598;BMP180;5346;48.766;8.674;2023-03-23T04:35:06;93358.00;;;12.50
10598;BMP180;5346;48.766;8.674;2023-03-23T04:37:41;93355.00;;;12.50
10598;BMP180;5346;48.766;8.674;2023-03-23T04:40:11;93360.00;;;12.50
10598;BMP180;5346;48.766;8.674;2023-03-23T04:42:48;93355.00;;;12.50
10598;BMP180;5346;48.766;8.674;2023-03-23T04:45:25;93365.00;;;12.50
10598;BMP180;5346;48.766;8.674;2023-03-23T04:48:00;93381.00;;;12.40
10598;BMP180;5346;48.766;8.674;2023-03-23T04:50:30;93378.00;;;12.50
10598;BMP180;5346;48.766;8.674;2023-03-23T04:53:06;93370.00;;;12.50
10598;BMP180;5346;48.766;8.674;2023-03-23T04:55:40;93371.00;;;12.50
10598;BMP180;5346;48.766;8.674;2023-03-23T04:58:15;93384.00;;;12.60
10598;BMP180;5346;48.766;8.674;2023-03-23T05:00:44;93378.00;;;12.50
10598;BMP180;5346;48.766;8.674;2023-03-23T05:03:23;93374.00;;;12.40
10598;BMP180;5346;48.766;8.674;2023-03-23T05:05:56;93386.00;;;12.50
10598;BMP180;5346;48.766;8.674;2023-03-23T05:08:31;93371.00;;;12.50
10598;BMP180;5346;48.766;8.674;2023-03-23T05:11:01;93374.00;;;12.50
10598;BMP180;5346;48.766;8.674;2023-03-23T05:13:35;93388.00;;;12.50
10598;BMP180;5346;48.766;8.674;2023-03-23T05:16:10;93384.00;;;12.40
10598;BMP180;5346;48.766;8.674;2023-03-23T05:18:44;93385.00;;;12.60
10598;BMP180;5346;48.766;8.674;2023-03-23T05:21:20;93386.00;;;12.60
10598;BMP180;5346;48.766;8.674;2023-03-23T05:23:48;93396.00;;;12.60
10598;BMP180;5346;48.766;8.674;2023-03-23T05:26:29;93394.00;;;12.50
10598;BMP180;5346;48.766;8.674;2023-03-23T05:28:58;93384.00;;;12.40
10598;BMP180;5346;48.766;8.674;2023-03-23T05:31:28;93391.00;;;12.40
10598;BMP180;5346;48.766;8.674;2023-03-23T05:34:02;93385.00;;;12.40
10598;BMP180;5346;48.766;8.674;2023-03-23T05:36:32;93390.00;;;12.50
10598;BMP180;5346;48.766;8.674;2023-03-23T05:39:07;93391.00;;;12.30
10598;BMP180;5346;48.766;8.674;2023-03-23T05:41:37;93392.00;;;12.00
10598;BMP180;5346;48.766;8.674;2023-03-23T05:44:19;93397.00;;;11.70
10598;BMP180;5346;48.766;8.674;2023-03-23T05:47:00;93395.00;;;11.40
10598;BMP180;5346;48.766;8.674;2023-03-23T05:49:28;93410.00;;;11.30
10598;BMP180;5346;48.766;8.674;2023-03-23T05:52:03;93403.00;;;11.20
10598;BMP180;5346;48.766;8.674;2023-03-23T05:54:30;93407.00;;;11.30
10598;BMP180;5346;48.766;8.674;2023-03-23T05:57:05;93412.00;;;11.30
10598;BMP180;5346;48.766;8.674;2023-03-23T05:59:33;93421.00;;;11.10
10598;BMP180;5346;48.766;8.674;2023-03-23T06:02:10;93429.00;;;11.20
10598;BMP180;5346;48.766;8.674;2023-03-23T06:04:37;93439.00;;;11.00
10598;BMP180;5346;48.766;8.674;2023-03-23T06:07:15;93444.00;;;10.70
10598;BMP180;5346;48.766;8.674;2023-03-23T06:09:43;93455.00;;;10.20
10598;BMP180;5346;48.766;8.674;2023-03-23T06:12:18;93456.00;;;9.90
10598;BMP180;5346;48.766;8.674;2023-03-23T06:15:01;93460.00;;;9.60
10598;BMP180;5346;48.766;8.674;2023-03-23T06:17:43;93471.00;;;9.40
10598;BMP180;5346;48.766;8.674;2023-03-23T06:20:16;93475.00;;;9.20
10598;BMP180;5346;48.766;8.674;2023-03-23T06:22:51;93477.00;;;9.30
10598;BMP180;5346;48.766;8.674;2023-03-23T06:25:19;93471.00;;;9.10
10598;BMP180;5346;48.766;8.674;2023-03-23T06:27:56;93482.00;;;9.10
10598;BMP180;5346;48.766;8.674;2023-03-23T06:30:24;93487.00;;;9.10
10598;BMP180;5346;48.766;8.674;2023-03-23T06:33:00;93486.00;;;9.20
10598;BMP180;5346;48.766;8.674;2023-03-23T06:35:27;93481.00;;;9.30
10598;BMP180;5346;48.766;8.674;2023-03-23T06:38:01;93484.00;;;9.30
10598;BMP180;5346;48.766;8.674;2023-03-23T06:40:37;93471.00;;;9.50
10598;BMP180;5346;48.766;8.674;2023-03-23T06:43:11;93477.00;;;9.40
10598;BMP180;5346;48.766;8.674;2023-03-23T06:45:47;93486.00;;;9.30
10598;BMP180;5346;48.766;8.674;2023-03-23T06:48:25;93484.00;;;9.50
10598;BMP180;5346;48.766;8.674;2023-03-23T06:50:59;93484.00;;;9.30
10598;BMP180;5346;48.766;8.674;2023-03-23T06:53:27;93488.00;;;9.50
10598;BMP180;5346;48.766;8.674;2023-03-23T06:56:01;93484.00;;;9.40
10598;BMP180;5346;48.766;8.674;2023-03-23T06:58:29;93498.00;;;9.60
10598;BMP180;5346;48.766;8.674;2023-03-23T07:01:03;93500.00;;;9.50
10598;BMP180;5346;48.766;8.674;2023-03-23T07:03:31;93503.00;;;9.50
10598;BMP180;5346;48.766;8.674;2023-03-23T07:06:05;93514.00;;;9.40
10598;BMP180;5346;48.766;8.674;2023-03-23T07:08:34;93514.00;;;9.60
10598;BMP180;5346;48.766;8.674;2023-03-23T07:11:09;93515.00;;;9.40
10598;BMP180;5346;48.766;8.674;2023-03-23T07:13:38;93518.00;;;9.80
10598;BMP180;5346;48.766;8.674;2023-03-23T07:16:18;93533.00;;;9.90
10598;BMP180;5346;48.766;8.674;2023-03-23T07:19:00;93536.00;;;10.10
10598;BMP180;5346;48.766;8.674;2023-03-23T07:21:34;93541.00;;;10.00
10598;BMP180;5346;48.766;8.674;2023-03-23T07:24:02;93538.00;;;10.10
10598;BMP180;5346;48.766;8.674;2023-03-23T07:26:36;93549.00;;;10.20
10598;BMP180;5346;48.766;8.674;2023-03-23T07:29:04;93540.00;;;10.00
10598;BMP180;5346;48.766;8.674;2023-03-23T07:31:38;93538.00;;;10.10
10598;BMP180;5346;48.766;8.674;2023-03-23T07:34:14;93532.00;;;10.30
10598;BMP180;5346;48.766;8.674;2023-03-23T07:37:04;93528.00;;;10.40
10598;BMP180;5346;48.766;8.674;2023-03-23T07:39:46;93518.00;;;10.70
10598;BMP180;5346;48.766;8.674;2023-03-23T07:42:21;93520.00;;;10.70
10598;BMP180;5346;48.766;8.674;2023-03-23T07:44:50;93527.00;;;10.80
10598;BMP180;5346;48.766;8.674;2023-03-23T07:47:24;93530.00;;;10.80
10598;BMP180;5346;48.766;8.674;2023-03-23T07:50:00;93521.00;;;10.70
10598;BMP180;5346;48.766;8.674;2023-03-23T07:52:36;93537.00;;;10.60
10598;BMP180;5346;48.766;8.674;2023-03-23T07:55:12;93527.00;;;10.70
10598;BMP180;5346;48.766;8.674;2023-03-23T07:57:52;93527.00;;;10.60
10598;BMP180;5346;48.766;8.674;2023-03-23T08:00:27;93531.00;;;10.90
10598;BMP180;5346;48.766;8.674;2023-03-23T08:03:01;93530.00;;;10.70
10598;BMP180;5346;48.766;8.674;2023-03-23T08:05:29;93539.00;;;10.90
10598;BMP180;5346;48.766;8.674;2023-03-23T08:08:04;93532.00;;;11.00
10598;BMP180;5346;48.766;8.674;2023-03-23T08:10:34;93541.00;;;11.00
10598;BMP180;5346;48.766;8.674;2023-03-23T08:13:03;93546.00;;;10.90
10598;BMP180;5346;48.766;8.674;2023-03-23T08:15:37;93546.00;;;10.70
10598;BMP180;5346;48.766;8.674;2023-03-23T08:18:18;93548.00;;;10.30
10598;BMP180;5346;48.766;8.674;2023-03-23T08:20:53;93547.00;;;10.20
10598;BMP180;5346;48.766;8.674;2023-03-23T08:23:21;93553.00;;;10.10
10598;BMP180;5346;48.766;8.674;2023-03-23T08:25:55;93557.00;;;9.90
10598;BMP180;5346;48.766;8.674;2023-03-23T08:28:23;93552.00;;;9.90
10598;BMP180;5346;48.766;8.674;2023-03-23T08:31:05;93554.00;;;9.80
10598;BMP180;5346;48.766;8.674;2023-03-23T08:33:42;93562.00;;;9.80
10598;BMP180;5346;48.766;8.674;2023-03-23T08:36:16;93562.00;;;9.80
10598;BMP180;5346;48.766;8.674;2023-03-23T08:38:43;93560.00;;;9.80
10598;BMP180;5346;48.766;8.674;2023-03-23T08:41:18;93505.00;;;10.00
10598;BMP180;5346;48.766;8.674;2023-03-23T08:43:45;93568.00;;;10.20
10598;BMP180;5346;48.766;8.674;2023-03-23T08:46:20;93577.00;;;10.10
10598;BMP180;5346;48.766;8.674;2023-03-23T08:48:49;93577.00;;;10.20
10598;BMP180;5346;48.766;8.674;2023-03-23T08:51:24;93576.00;;;10.20
10598;BMP180;5346;48.766;8.674;2023-03-23T08:53:59;93576.00;;;10.40
10598;BMP180;5346;48.766;8.674;2023-03-23T08:56:35;93575.00;;;10.40
10598;BMP180;5346;48.766;8.674;2023-03-23T08:59:03;93511.00;;;10.50
10598;BMP180;5346;48.766;8.674;2023-03-23T09:01:37;93579.00;;;10.60
10598;BMP180;5346;48.766;8.674;2023-03-23T09:04:04;93581.00;;;10.70
10598;BMP180;5346;48.766;8.674;2023-03-23T09:06:40;93582.00;;;10.90
10598;BMP180;5346;48.766;8.674;2023-03-23T09:09:08;93593.00;;;11.10
10598;BMP180;5346;48.766;8.674;2023-03-23T09:11:43;93596.00;;;11.10
10598;BMP180;5346;48.766;8.674;2023-03-23T09:14:17;93600.00;;;11.00
10598;BMP180;5346;48.766;8.674;2023-03-23T09:16:51;93606.00;;;10.80
10598;BMP180;5346;48.766;8.674;2023-03-23T09:19:34;93607.00;;;10.80
10598;BMP180;5346;48.766;8.674;2023-03-23T09:22:02;93616.00;;;10.80
10598;BMP180;5346;48.766;8.674;2023-03-23T09:24:37;93619.00;;;10.80
10598;BMP180;5346;48.766;8.674;2023-03-23T09:27:04;93625.00;;;10.50
10598;BMP180;5346;48.766;8.674;2023-03-23T09:29:33;93630.00;;;10.60
10598;BMP180;5346;48.766;8.674;2023-03-23T09:32:15;93630.00;;;10.40
10598;BMP180;5346;48.766;8.674;2023-03-23T09:34:49;93632.00;;;10.30
10598;BMP180;5346;48.766;8.674;2023-03-23T09:37:23;93627.00;;;10.20
10598;BMP180;5346;48.766;8.674;2023-03-23T09:39:57;93636.00;;;10.20
10598;BMP180;5346;48.766;8.674;2023-03-23T09:48:07;93622.00;;;11.30
10598;BMP180;5346;48.766;8.674;2023-03-23T09:50:48;93623.00;;;11.90
10598;BMP180;5346;48.766;8.674;2023-03-23T09:53:39;93621.00;;;12.50
10598;BMP180;5346;48.766;8.674;2023-03-23T09:56:14;93625.00;;;13.20
10598;BMP180;5346;48.766;8.674;2023-03-23T09:59:00;93609.00;;;13.30
10598;BMP180;5346;48.766;8.674;2023-03-23T10:01:44;93610.00;;;12.80
10598;BMP180;5346;48.766;8.674;2023-03-23T10:04:39;93606.00;;;12.40
10598;BMP180;5346;48.766;8.674;2023-03-23T10:07:14;93607.00;;;13.00
10598;BMP180;5346;48.766;8.674;2023-03-23T10:09:55;93609.00;;;12.80
10598;BMP180;5346;48.766;8.674;2023-03-23T10:12:55;93613.00;;;12.20
10598;BMP180;5346;48.766;8.674;2023-03-23T10:15:39;93621.00;;;11.90
10598;BMP180;5346;48.766;8.674;2023-03-23T10:18:44;93618.00;;;11.90
10598;BMP180;5346;48.766;8.674;2023-03-23T10:21:24;93622.00;;;12.10
10598;BMP180;5346;48.766;8.674;2023-03-23T10:24:04;93621.00;;;12.70
10598;BMP180;5346;48.766;8.674;2023-03-23T10:27:07;93627.00;;;13.00
10598;BMP180;5346;48.766;8.674;2023-03-23T10:29:42;93640.00;;;12.90
10598;BMP180;5346;48.766;8.674;2023-03-23T10:35:17;93638.00;;;12.60
10598;BMP180;5346;48.766;8.674;2023-03-23T10:38:01;93637.00;;;12.80
10598;BMP180;5346;48.766;8.674;2023-03-23T10:40:52;93621.00;;;12.60
10598;BMP180;5346;48.766;8.674;2023-03-23T10:43:22;93630.00;;;12.80
10598;BMP180;5346;48.766;8.674;2023-03-23T10:46:05;93628.00;;;13.10
10598;BMP180;5346;48.766;8.674;2023-03-23T10:48:39;93636.00;;;12.50
10598;BMP180;5346;48.766;8.674;2023-03-23T10:51:14;93626.00;;;12.30
10598;BMP180;5346;48.766;8.674;2023-03-23T10:53:55;93626.00;;;12.80
10598;BMP180;5346;48.766;8.674;2023-03-23T10:56:25;93622.00;;;12.30
10598;BMP180;5346;48.766;8.674;2023-03-23T10:59:28;93619.00;;;12.40
10598;BMP180;5346;48.766;8.674;2023-03-23T11:02:14;93626.00;;;12.70
10598;BMP180;5346;48.766;8.674;2023-03-23T11:05:01;93621.00;;;13.00
10598;BMP180;5346;48.766;8.674;2023-03-23T11:07:55;93621.00;;;12.90
10598;BMP180;5346;48.766;8.674;2023-03-23T11:10:35;93613.00;;;12.80
10598;BMP180;5346;48.766;8.674;2023-03-23T11:13:15;93614.00;;;13.00
10598;BMP180;5346;48.766;8.674;2023-03-23T11:15:45;93610.00;;;13.20
10598;BMP180;5346;48.766;8.674;2023-03-23T11:18:24;93611.00;;;13.10
10598;BMP180;5346;48.766;8.674;2023-03-23T11:20:58;93611.00;;;13.50
10598;BMP180;5346;48.766;8.674;2023-03-23T11:23:41;93610.00;;;14.10
10598;BMP180;5346;48.766;8.674;2023-03-23T11:26:20;93611.00;;;13.60
10598;BMP180;5346;48.766;8.674;2023-03-23T11:29:05;93608.00;;;14.00
10598;BMP180;5346;48.766;8.674;2023-03-23T11:31:44;93614.00;;;14.10
10598;BMP180;5346;48.766;8.674;2023-03-23T11:34:30;93607.00;;;14.00
10598;BMP180;5346;48.766;8.674;2023-03-23T11:42:56;93622.00;;;13.60
10598;BMP180;5346;48.766;8.674;2023-03-23T11:45:58;93626.00;;;13.70
10598;BMP180;5346;48.766;8.674;2023-03-23T11:54:36;93636.00;;;12.60
10598;BMP180;5346;48.766;8.674;2023-03-23T11:57:12;93638.00;;;12.60
10598;BMP180;5346;48.766;8.674;2023-03-23T11:59:47;93630.00;;;12.70
10598;BMP180;5346;48.766;8.674;2023-03-23T12:05:36;93638.00;;;13.00
10598;BMP180;5346;48.766;8.674;2023-03-23T12:08:40;93633.00;;;12.50
10598;BMP180;5346;48.766;8.674;2023-03-23T12:11:38;93640.00;;;12.60
10598;BMP180;5346;48.766;8.674;2023-03-23T12:20:29;93630.00;;;13.00
10598;BMP180;5346;48.766;8.674;2023-03-23T12:26:08;93594.00;;;13.80
10598;BMP180;5346;48.766;8.674;2023-03-23T12:32:26;93564.00;;;16.60
10598;BMP180;5346;48.766;8.674;2023-03-23T12:40:45;93571.00;;;15.60
10598;BMP180;5346;48.766;8.674;2023-03-23T12:52:19;93570.00;;;15.00
10598;BMP180;5346;48.766;8.674;2023-03-23T12:55:45;93565.00;;;14.70
10598;BMP180;5346;48.766;8.674;2023-03-23T12:58:26;93559.00;;;14.80
10598;BMP180;5346;48.766;8.674;2023-03-23T13:01:21;93563.00;;;14.50
10598;BMP180;5346;48.766;8.674;2023-03-23T13:03:57;93544.00;;;15.10
10598;BMP180;5346;48.766;8.674;2023-03-23T13:06:43;93535.00;;;16.00
10598;BMP180;5346;48.766;8.674;2023-03-23T13:11:58;93541.00;;;16.10
10598;BMP180;5346;48.766;8.674;2023-03-23T13:17:59;93539.00;;;15.50
10598;BMP180;5346;48.766;8.674;2023-03-23T13:23:43;93528.00;;;16.20
10598;BMP180;5346;48.766;8.674;2023-03-23T13:26:18;93519.00;;;16.30
10598;BMP180;5346;48.766;8.674;2023-03-23T13:28:59;93532.00;;;15.40
10598;BMP180;5346;48.766;8.674;2023-03-23T13:31:35;93530.00;;;15.40
10598;BMP180;5346;48.766;8.674;2023-03-23T13:34:24;93516.00;;;15.10
10598;BMP180;5346;48.766;8.674;2023-03-23T13:37:06;93522.00;;;15.10
10598;BMP180;5346;48.766;8.674;2023-03-23T13:39:50;93522.00;;;14.70
10598;BMP180;5346;48.766;8.674;2023-03-23T13:42:29;93531.00;;;14.90
10598;BMP180;5346;48.766;8.674;2023-03-23T13:48:20;93535.00;;;14.20
10598;BMP180;5346;48.766;8.674;2023-03-23T13:50:57;93535.00;;;13.90
10598;BMP180;5346;48.766;8.674;2023-03-23T13:53:46;93527.00;;;14.00
10598;BMP180;5346;48.766;8.674;2023-03-23T13:56:35;93528.00;;;14.10
10598;BMP180;5346;48.766;8.674;2023-03-23T13:59:27;93522.00;;;13.80
10598;BMP180;5346;48.766;8.674;2023-03-23T14:05:35;93511.00;;;13.90
10598;BMP180;5346;48.766;8.674;2023-03-23T14:08:21;93510.00;;;14.30
10598;BMP180;5346;48.766;8.674;2023-03-23T14:11:01;93499.00;;;14.70
10598;BMP180;5346;48.766;8.674;2023-03-23T14:16:22;93489.00;;;14.60
10598;BMP180;5346;48.766;8.674;2023-03-23T14:19:24;93481.00;;;14.90
10598;BMP180;5346;48.766;8.674;2023-03-23T14:22:01;93467.00;;;15.20
10598;BMP180;5346;48.766;8.674;2023-03-23T14:24:40;93480.00;;;15.30
10598;BMP180;5346;48.766;8.674;2023-03-23T14:27:19;93474.00;;;15.30
10598;BMP180;5346;48.766;8.674;2023-03-23T14:30:04;93480.00;;;15.50
10598;BMP180;5346;48.766;8.674;2023-03-23T14:32:33;93485.00;;;15.30
10598;BMP180;5346;48.766;8.674;2023-03-23T14:35:19;93478.00;;;15.20
10598;BMP180;5346;48.766;8.674;2023-03-23T14:37:56;93486.00;;;15.00
10598;BMP180;5346;48.766;8.674;2023-03-23T14:40:32;93497.00;;;15.00
10598;BMP180;5346;48.766;8.674;2023-03-23T14:43:13;93499.00;;;14.90
10598;BMP180;5346;48.766;8.674;2023-03-23T14:45:58;93496.00;;;15.00
10598;BMP180;5346;48.766;8.674;2023-03-23T14:48:33;93490.00;;;15.10
10598;BMP180;5346;48.766;8.674;2023-03-23T14:51:03;93495.00;;;15.20
10598;BMP180;5346;48.766;8.674;2023-03-23T14:53:42;93499.00;;;15.40
10598;BMP180;5346;48.766;8.674;2023-03-23T14:56:22;93495.00;;;15.20
10598;BMP180;5346;48.766;8.674;2023-03-23T14:59:04;93488.00;;;15.00
10598;BMP180;5346;48.766;8.674;2023-03-23T15:01:41;93489.00;;;15.00
10598;BMP180;5346;48.766;8.674;2023-03-23T15:04:23;93488.00;;;15.00
10598;BMP180;5346;48.766;8.674;2023-03-23T15:07:02;93494.00;;;15.00
10598;BMP180;5346;48.766;8.674;2023-03-23T15:09:40;93492.00;;;15.20
10598;BMP180;5346;48.766;8.674;2023-03-23T15:12:28;93493.00;;;15.00
10598;BMP180;5346;48.766;8.674;2023-03-23T15:18:31;93494.00;;;14.80
10598;BMP180;5346;48.766;8.674;2023-03-23T15:21:25;93507.00;;;14.80
10598;BMP180;5346;48.766;8.674;2023-03-23T15:24:02;93503.00;;;14.50
10598;BMP180;5346;48.766;8.674;2023-03-23T15:26:44;93503.00;;;14.30
10598;BMP180;5346;48.766;8.674;2023-03-23T15:29:21;93491.00;;;14.40
10598;BMP180;5346;48.766;8.674;2023-03-23T15:31:57;93477.00;;;14.60
10598;BMP180;5346;48.766;8.674;2023-03-23T15:34:37;93477.00;;;14.50
10598;BMP180;5346;48.766;8.674;2023-03-23T15:37:29;93485.00;;;14.60
10598;BMP180;5346;48.766;8.674;2023-03-23T15:40:13;93481.00;;;14.60
10598;BMP180;5346;48.766;8.674;2023-03-23T15:42:43;93486.00;;;14.40
10598;BMP180;5346;48.766;8.674;2023-03-23T15:45:27;93488.00;;;14.50
10598;BMP180;5346;48.766;8.674;2023-03-23T15:48:11;93488.00;;;14.10
10598;BMP180;5346;48.766;8.674;2023-03-23T15:50:43;93484.00;;;14.20
10598;BMP180;5346;48.766;8.674;2023-03-23T15:53:32;93481.00;;;14.10
10598;BMP180;5346;48.766;8.674;2023-03-23T15:56:10;93494.00;;;13.90
10598;BMP180;5346;48.766;8.674;2023-03-23T15:58:47;93493.00;;;13.90
10598;BMP180;5346;48.766;8.674;2023-03-23T16:01:27;93505.00;;;13.80
10598;BMP180;5346;48.766;8.674;2023-03-23T16:04:13;93506.00;;;13.60
10598;BMP180;5346;48.766;8.674;2023-03-23T16:06:51;93505.00;;;13.60
10598;BMP180;5346;48.766;8.674;2023-03-23T16:09:27;93499.00;;;13.60
10598;BMP180;5346;48.766;8.674;2023-03-23T16:12:04;93504.00;;;13.40
10598;BMP180;5346;48.766;8.674;2023-03-23T16:14:32;93512.00;;;13.40
10598;BMP180;5346;48.766;8.674;2023-03-23T16:17:03;93513.00;;;13.30
10598;BMP180;5346;48.766;8.674;2023-03-23T16:19:44;93503.00;;;13.50
10598;BMP180;5346;48.766;8.674;2023-03-23T16:22:18;93496.00;;;13.50
10598;BMP180;5346;48.766;8.674;2023-03-23T16:24:52;93502.00;;;13.40
10598;BMP180;5346;48.766;8.674;2023-03-23T16:27:21;93501.00;;;13.40
10598;BMP180;5346;48.766;8.674;2023-03-23T16:29:57;93501.00;;;13.40
10598;BMP180;5346;48.766;8.674;2023-03-23T16:32:32;93510.00;;;13.30
10598;BMP180;5346;48.766;8.674;2023-03-23T16:35:05;93503.00;;;13.30
10598;BMP180;5346;48.766;8.674;2023-03-23T16:37:48;93497.00;;;13.20
10598;BMP180;5346;48.766;8.674;2023-03-23T16:40:36;93501.00;;;13.00
10598;BMP180;5346;48.766;8.674;2023-03-23T16:43:05;93502.00;;;13.20
10598;BMP180;5346;48.766;8.674;2023-03-23T16:45:44;93499.00;;;13.10
10598;BMP180;5346;48.766;8.674;2023-03-23T16:48:19;93505.00;;;13.00
10598;BMP180;5346;48.766;8.674;2023-03-23T16:50:48;93501.00;;;13.00
10598;BMP180;5346;48.766;8.674;2023-03-23T16:53:26;93505.00;;;12.90